sensor_id;sensor_type;location;lat;lon;timestamp;P1;durP1;ratioP1;P2;durP2;ratioP2
80778;SDS011;70170;47.856;10.956;2024-03-25T00:00:38;2.00;;;1.30;;
80778;SDS011;70170;47.856;10.956;2024-03-25T00:03:03;0.73;;;0.70;;
80778;SDS011;70170;47.856;10.956;2024-03-25T00:05:29;0.93;;;0.90;;
80778;SDS011;70170;47.856;10.956;2024-03-25T00:07:55;2.00;;;1.15;;
80778;SDS011;70170;47.856;10.956;2024-03-25T00:10:21;4.93;;;1.30;;
80778;SDS011;70170;47.856;10.956;2024-03-25T00:12:47;2.00;;;1.30;;
80778;SDS011;70170;47.856;10.956;2024-03-25T00:15:17;1.20;;;1.10;;
80778;SDS011;70170;47.856;10.956;2024-03-25T00:17:44;1.85;;;1.00;;
80778;SDS011;70170;47.856;10.956;2024-03-25T00:20:10;1.75;;;1.10;;
80778;SDS011;70170;47.856;10.956;2024-03-25T00:22:35;2.65;;;1.33;;
80778;SDS011;70170;47.856;10.956;2024-03-25T00:25:01;1.15;;;1.00;;
80778;SDS011;70170;47.856;10.956;2024-03-25T00:27:26;2.22;;;1.15;;
80778;SDS011;70170;47.856;10.956;2024-03-25T00:29:51;2.78;;;0.80;;
80778;SDS011;70170;47.856;10.956;2024-03-25T00:32:17;0.90;;;0.90;;
80778;SDS011;70170;47.856;10.956;2024-03-25T00:34:42;0.80;;;0.80;;
80778;SDS011;70170;47.856;10.956;2024-03-25T00:37:07;0.93;;;0.75;;
80778;SDS011;70170;47.856;10.956;2024-03-25T00:39:33;1.08;;;0.95;;
80778;SDS011;70170;47.856;10.956;2024-03-25T00:41:59;1.92;;;0.90;;
80778;SDS011;70170;47.856;10.956;2024-03-25T00:44:25;1.05;;;1.02;;
80778;SDS011;70170;47.856;10.956;2024-03-25T00:46:50;0.55;;;0.55;;
80778;SDS011;70170;47.856;10.956;2024-03-25T00:49:16;0.95;;;0.63;;
80778;SDS011;70170;47.856;10.956;2024-03-25T00:51:41;1.98;;;0.73;;
80778;SDS011;70170;47.856;10.956;2024-03-25T00:54:07;0.85;;;0.85;;
80778;SDS011;70170;47.856;10.956;2024-03-25T00:56:32;0.80;;;0.80;;
80778;SDS011;70170;47.856;10.956;2024-03-25T00:58:58;0.70;;;0.70;;
80778;SDS011;70170;47.856;10.956;2024-03-25T01:01:27;0.90;;;0.88;;
80778;SDS011;70170;47.856;10.956;2024-03-25T01:03:56;0.88;;;0.88;;
80778;SDS011;70170;47.856;10.956;2024-03-25T01:06:22;1.75;;;0.93;;
80778;SDS011;70170;47.856;10.956;2024-03-25T01:08:47;2.35;;;1.10;;
80778;SDS011;70170;47.856;10.956;2024-03-25T01:11:13;0.68;;;0.68;;
80778;SDS011;70170;47.856;10.956;2024-03-25T01:13:38;1.20;;;1.10;;
80778;SDS011;70170;47.856;10.956;2024-03-25T01:16:04;1.55;;;0.80;;
80778;SDS011;70170;47.856;10.956;2024-03-25T01:18:29;1.17;;;1.02;;
80778;SDS011;70170;47.856;10.956;2024-03-25T01:20:54;2.78;;;1.65;;
80778;SDS011;70170;47.856;10.956;2024-03-25T01:23:20;1.45;;;1.00;;
80778;SDS011;70170;47.856;10.956;2024-03-25T01:25:45;1.85;;;1.10;;
80778;SDS011;70170;47.856;10.956;2024-03-25T01:28:10;1.02;;;1.02;;
80778;SDS011;70170;47.856;10.956;2024-03-25T01:30:36;1.15;;;1.15;;
80778;SDS011;70170;47.856;10.956;2024-03-25T01:33:04;1.30;;;1.20;;
80778;SDS011;70170;47.856;10.956;2024-03-25T01:35:30;1.02;;;0.93;;
80778;SDS011;70170;47.856;10.956;2024-03-25T01:37:55;1.42;;;1.30;;
80778;SDS011;70170;47.856;10.956;2024-03-25T01:40:21;1.23;;;1.13;;
80778;SDS011;70170;47.856;10.956;2024-03-25T01:42:56;1.50;;;1.40;;
80778;SDS011;70170;47.856;10.956;2024-03-25T01:45:26;1.25;;;1.15;;
80778;SDS011;70170;47.856;10.956;2024-03-25T01:47:56;1.30;;;1.20;;
80778;SDS011;70170;47.856;10.956;2024-03-25T01:50:24;1.02;;;1.02;;
80778;SDS011;70170;47.856;10.956;2024-03-25T01:52:50;2.03;;;1.15;;
80778;SDS011;70170;47.856;10.956;2024-03-25T01:55:17;4.03;;;2.17;;
80778;SDS011;70170;47.856;10.956;2024-03-25T01:57:44;3.28;;;1.50;;
80778;SDS011;70170;47.856;10.956;2024-03-25T02:00:10;2.13;;;1.60;;
80778;SDS011;70170;47.856;10.956;2024-03-25T02:02:37;2.03;;;1.20;;
80778;SDS011;70170;47.856;10.956;2024-03-25T02:05:07;2.58;;;1.30;;
80778;SDS011;70170;47.856;10.956;2024-03-25T02:07:33;1.65;;;1.48;;
80778;SDS011;70170;47.856;10.956;2024-03-25T02:10:01;8.02;;;1.42;;
80778;SDS011;70170;47.856;10.956;2024-03-25T02:12:28;1.73;;;1.63;;
80778;SDS011;70170;47.856;10.956;2024-03-25T02:14:54;5.72;;;1.67;;
80778;SDS011;70170;47.856;10.956;2024-03-25T02:17:20;4.93;;;1.98;;
80778;SDS011;70170;47.856;10.956;2024-03-25T02:19:45;5.15;;;1.50;;
80778;SDS011;70170;47.856;10.956;2024-03-25T02:22:11;1.88;;;1.60;;
80778;SDS011;70170;47.856;10.956;2024-03-25T02:24:36;1.52;;;1.40;;
80778;SDS011;70170;47.856;10.956;2024-03-25T02:27:03;2.33;;;1.77;;
80778;SDS011;70170;47.856;10.956;2024-03-25T02:29:35;1.52;;;1.42;;
80778;SDS011;70170;47.856;10.956;2024-03-25T02:32:01;3.55;;;1.70;;
80778;SDS011;70170;47.856;10.956;2024-03-25T02:34:26;1.52;;;1.42;;
80778;SDS011;70170;47.856;10.956;2024-03-25T02:36:51;1.58;;;1.27;;
80778;SDS011;70170;47.856;10.956;2024-03-25T02:39:18;2.45;;;1.60;;
80778;SDS011;70170;47.856;10.956;2024-03-25T02:41:44;1.33;;;1.23;;
80778;SDS011;70170;47.856;10.956;2024-03-25T02:44:10;1.85;;;1.65;;
80778;SDS011;70170;47.856;10.956;2024-03-25T02:46:36;1.23;;;1.13;;
80778;SDS011;70170;47.856;10.956;2024-03-25T02:49:01;2.22;;;1.52;;
80778;SDS011;70170;47.856;10.956;2024-03-25T02:51:26;1.60;;;1.50;;
80778;SDS011;70170;47.856;10.956;2024-03-25T02:53:51;8.75;;;1.60;;
80778;SDS011;70170;47.856;10.956;2024-03-25T02:56:17;2.13;;;1.80;;
80778;SDS011;70170;47.856;10.956;2024-03-25T02:58:42;4.65;;;2.20;;
80778;SDS011;70170;47.856;10.956;2024-03-25T03:01:07;2.55;;;1.60;;
80778;SDS011;70170;47.856;10.956;2024-03-25T03:03:33;1.35;;;1.25;;
80778;SDS011;70170;47.856;10.956;2024-03-25T03:05:58;2.78;;;1.92;;
80778;SDS011;70170;47.856;10.956;2024-03-25T03:08:23;1.65;;;1.27;;
80778;SDS011;70170;47.856;10.956;2024-03-25T03:10:48;3.35;;;1.80;;
80778;SDS011;70170;47.856;10.956;2024-03-25T03:13:14;3.33;;;1.48;;
80778;SDS011;70170;47.856;10.956;2024-03-25T03:15:43;2.88;;;2.08;;
80778;SDS011;70170;47.856;10.956;2024-03-25T03:18:09;2.22;;;1.67;;
80778;SDS011;70170;47.856;10.956;2024-03-25T03:20:34;2.75;;;1.63;;
80778;SDS011;70170;47.856;10.956;2024-03-25T03:23:00;1.48;;;1.38;;
80778;SDS011;70170;47.856;10.956;2024-03-25T03:25:25;0.93;;;0.93;;
80778;SDS011;70170;47.856;10.956;2024-03-25T03:27:51;5.05;;;1.35;;
80778;SDS011;70170;47.856;10.956;2024-03-25T03:30:16;2.63;;;1.55;;
80778;SDS011;70170;47.856;10.956;2024-03-25T03:32:41;4.15;;;2.20;;
80778;SDS011;70170;47.856;10.956;2024-03-25T03:35:07;2.17;;;1.52;;
80778;SDS011;70170;47.856;10.956;2024-03-25T03:37:32;1.67;;;1.27;;
80778;SDS011;70170;47.856;10.956;2024-03-25T03:39:57;1.60;;;1.27;;
80778;SDS011;70170;47.856;10.956;2024-03-25T03:42:23;3.80;;;1.90;;
80778;SDS011;70170;47.856;10.956;2024-03-25T03:44:48;2.55;;;1.40;;
80778;SDS011;70170;47.856;10.956;2024-03-25T03:47:13;4.43;;;1.67;;
80778;SDS011;70170;47.856;10.956;2024-03-25T03:49:38;2.85;;;1.65;;
80778;SDS011;70170;47.856;10.956;2024-03-25T03:52:04;4.72;;;1.73;;
80778;SDS011;70170;47.856;10.956;2024-03-25T03:54:29;2.13;;;1.50;;
80778;SDS011;70170;47.856;10.956;2024-03-25T03:56:55;1.80;;;1.70;;
80778;SDS011;70170;47.856;10.956;2024-03-25T03:59:20;2.17;;;1.67;;
80778;SDS011;70170;47.856;10.956;2024-03-25T04:01:45;1.48;;;1.38;;
80778;SDS011;70170;47.856;10.956;2024-03-25T04:04:11;1.80;;;1.65;;
80778;SDS011;70170;47.856;10.956;2024-03-25T04:06:36;3.00;;;1.83;;
80778;SDS011;70170;47.856;10.956;2024-03-25T04:09:01;6.80;;;1.67;;
80778;SDS011;70170;47.856;10.956;2024-03-25T04:11:27;3.80;;;1.90;;
80778;SDS011;70170;47.856;10.956;2024-03-25T04:13:52;2.97;;;1.58;;
80778;SDS011;70170;47.856;10.956;2024-03-25T04:16:18;5.35;;;1.90;;
80778;SDS011;70170;47.856;10.956;2024-03-25T04:18:43;2.38;;;1.60;;
80778;SDS011;70170;47.856;10.956;2024-03-25T04:21:11;2.00;;;1.50;;
80778;SDS011;70170;47.856;10.956;2024-03-25T04:23:38;4.10;;;1.70;;
80778;SDS011;70170;47.856;10.956;2024-03-25T04:26:05;3.92;;;2.30;;
80778;SDS011;70170;47.856;10.956;2024-03-25T04:28:32;2.75;;;1.60;;
80778;SDS011;70170;47.856;10.956;2024-03-25T04:30:57;3.65;;;1.55;;
80778;SDS011;70170;47.856;10.956;2024-03-25T04:33:23;4.00;;;1.70;;
80778;SDS011;70170;47.856;10.956;2024-03-25T04:35:48;3.97;;;1.70;;
80778;SDS011;70170;47.856;10.956;2024-03-25T04:38:15;5.88;;;2.35;;
80778;SDS011;70170;47.856;10.956;2024-03-25T04:40:41;2.92;;;1.58;;
80778;SDS011;70170;47.856;10.956;2024-03-25T04:43:06;1.98;;;1.70;;
80778;SDS011;70170;47.856;10.956;2024-03-25T04:45:32;3.40;;;1.63;;
80778;SDS011;70170;47.856;10.956;2024-03-25T04:47:57;2.47;;;1.55;;
80778;SDS011;70170;47.856;10.956;2024-03-25T04:50:22;3.67;;;1.60;;
80778;SDS011;70170;47.856;10.956;2024-03-25T04:52:48;2.38;;;1.42;;
80778;SDS011;70170;47.856;10.956;2024-03-25T04:55:13;1.67;;;1.35;;
80778;SDS011;70170;47.856;10.956;2024-03-25T04:57:38;7.57;;;2.28;;
80778;SDS011;70170;47.856;10.956;2024-03-25T05:00:04;4.20;;;1.98;;
80778;SDS011;70170;47.856;10.956;2024-03-25T05:02:30;9.43;;;1.98;;
80778;SDS011;70170;47.856;10.956;2024-03-25T05:04:55;1.63;;;1.52;;
80778;SDS011;70170;47.856;10.956;2024-03-25T05:07:20;2.58;;;1.90;;
80778;SDS011;70170;47.856;10.956;2024-03-25T05:09:45;1.85;;;1.73;;
80778;SDS011;70170;47.856;10.956;2024-03-25T05:12:11;2.35;;;1.52;;
80778;SDS011;70170;47.856;10.956;2024-03-25T05:14:36;1.27;;;1.10;;
80778;SDS011;70170;47.856;10.956;2024-03-25T05:17:01;5.22;;;1.85;;
80778;SDS011;70170;47.856;10.956;2024-03-25T05:19:29;2.42;;;1.85;;
80778;SDS011;70170;47.856;10.956;2024-03-25T05:21:54;1.70;;;1.60;;
80778;SDS011;70170;47.856;10.956;2024-03-25T05:24:20;1.80;;;1.35;;
80778;SDS011;70170;47.856;10.956;2024-03-25T05:26:45;3.80;;;2.03;;
80778;SDS011;70170;47.856;10.956;2024-03-25T05:29:11;3.13;;;2.05;;
80778;SDS011;70170;47.856;10.956;2024-03-25T05:31:36;4.28;;;2.03;;
80778;SDS011;70170;47.856;10.956;2024-03-25T05:34:02;1.85;;;1.63;;
80778;SDS011;70170;47.856;10.956;2024-03-25T05:36:33;3.28;;;1.80;;
80778;SDS011;70170;47.856;10.956;2024-03-25T05:38:58;2.30;;;1.42;;
80778;SDS011;70170;47.856;10.956;2024-03-25T05:41:25;1.77;;;1.27;;
80778;SDS011;70170;47.856;10.956;2024-03-25T05:43:50;2.50;;;1.60;;
80778;SDS011;70170;47.856;10.956;2024-03-25T05:46:15;1.90;;;1.30;;
80778;SDS011;70170;47.856;10.956;2024-03-25T05:48:40;4.35;;;1.73;;
80778;SDS011;70170;47.856;10.956;2024-03-25T05:51:06;1.73;;;1.63;;
80778;SDS011;70170;47.856;10.956;2024-03-25T05:53:35;1.60;;;1.35;;
80778;SDS011;70170;47.856;10.956;2024-03-25T05:56:00;1.17;;;1.13;;
80778;SDS011;70170;47.856;10.956;2024-03-25T05:58:26;2.33;;;1.30;;
80778;SDS011;70170;47.856;10.956;2024-03-25T06:00:52;2.55;;;1.40;;
80778;SDS011;70170;47.856;10.956;2024-03-25T06:03:18;4.95;;;1.73;;
80778;SDS011;70170;47.856;10.956;2024-03-25T06:05:44;2.20;;;1.38;;
80778;SDS011;70170;47.856;10.956;2024-03-25T06:08:09;1.67;;;1.30;;
80778;SDS011;70170;47.856;10.956;2024-03-25T06:10:43;6.22;;;2.17;;
80778;SDS011;70170;47.856;10.956;2024-03-25T06:13:09;3.63;;;1.40;;
80778;SDS011;70170;47.856;10.956;2024-03-25T06:15:34;1.70;;;1.30;;
80778;SDS011;70170;47.856;10.956;2024-03-25T06:17:59;1.30;;;1.20;;
80778;SDS011;70170;47.856;10.956;2024-03-25T06:20:25;4.13;;;1.55;;
80778;SDS011;70170;47.856;10.956;2024-03-25T06:22:50;2.80;;;1.58;;
80778;SDS011;70170;47.856;10.956;2024-03-25T06:25:16;2.85;;;1.42;;
80778;SDS011;70170;47.856;10.956;2024-03-25T06:27:42;1.92;;;1.60;;
80778;SDS011;70170;47.856;10.956;2024-03-25T06:30:07;1.75;;;1.42;;
80778;SDS011;70170;47.856;10.956;2024-03-25T06:32:52;2.35;;;1.40;;
80778;SDS011;70170;47.856;10.956;2024-03-25T06:35:36;2.28;;;1.45;;
80778;SDS011;70170;47.856;10.956;2024-03-25T06:38:01;2.28;;;1.67;;
80778;SDS011;70170;47.856;10.956;2024-03-25T06:40:27;3.65;;;1.58;;
80778;SDS011;70170;47.856;10.956;2024-03-25T06:42:52;1.45;;;1.35;;
80778;SDS011;70170;47.856;10.956;2024-03-25T06:45:17;1.45;;;1.30;;
80778;SDS011;70170;47.856;10.956;2024-03-25T06:47:43;2.75;;;1.40;;
80778;SDS011;70170;47.856;10.956;2024-03-25T06:50:08;3.67;;;1.60;;
80778;SDS011;70170;47.856;10.956;2024-03-25T06:52:34;1.33;;;1.30;;
80778;SDS011;70170;47.856;10.956;2024-03-25T06:54:59;5.90;;;1.90;;
80778;SDS011;70170;47.856;10.956;2024-03-25T06:57:24;3.30;;;1.40;;
80778;SDS011;70170;47.856;10.956;2024-03-25T06:59:50;2.53;;;1.27;;
80778;SDS011;70170;47.856;10.956;2024-03-25T07:02:15;2.67;;;1.33;;
80778;SDS011;70170;47.856;10.956;2024-03-25T07:04:40;1.25;;;1.15;;
80778;SDS011;70170;47.856;10.956;2024-03-25T07:07:06;2.10;;;1.50;;
80778;SDS011;70170;47.856;10.956;2024-03-25T07:09:31;1.98;;;1.23;;
80778;SDS011;70170;47.856;10.956;2024-03-25T07:11:57;1.33;;;1.23;;
80778;SDS011;70170;47.856;10.956;2024-03-25T07:14:22;1.65;;;1.17;;
80778;SDS011;70170;47.856;10.956;2024-03-25T07:16:48;2.50;;;1.17;;
80778;SDS011;70170;47.856;10.956;2024-03-25T07:19:13;4.03;;;1.55;;
80778;SDS011;70170;47.856;10.956;2024-03-25T07:21:38;2.78;;;1.38;;
80778;SDS011;70170;47.856;10.956;2024-03-25T07:24:04;1.65;;;1.40;;
80778;SDS011;70170;47.856;10.956;2024-03-25T07:26:29;2.92;;;1.30;;
80778;SDS011;70170;47.856;10.956;2024-03-25T07:28:55;1.15;;;1.10;;
80778;SDS011;70170;47.856;10.956;2024-03-25T07:31:20;3.90;;;1.40;;
80778;SDS011;70170;47.856;10.956;2024-03-25T07:33:45;2.03;;;1.20;;
80778;SDS011;70170;47.856;10.956;2024-03-25T07:36:10;1.48;;;1.35;;
80778;SDS011;70170;47.856;10.956;2024-03-25T07:38:36;2.13;;;1.30;;
80778;SDS011;70170;47.856;10.956;2024-03-25T07:41:03;4.30;;;1.30;;
80778;SDS011;70170;47.856;10.956;2024-03-25T07:43:29;7.75;;;1.45;;
80778;SDS011;70170;47.856;10.956;2024-03-25T07:45:55;2.53;;;1.15;;
80778;SDS011;70170;47.856;10.956;2024-03-25T07:48:20;2.00;;;1.30;;
80778;SDS011;70170;47.856;10.956;2024-03-25T07:50:45;1.65;;;1.20;;
80778;SDS011;70170;47.856;10.956;2024-03-25T07:53:11;1.77;;;1.50;;
80778;SDS011;70170;47.856;10.956;2024-03-25T07:55:36;2.15;;;1.65;;
80778;SDS011;70170;47.856;10.956;2024-03-25T07:58:01;1.92;;;1.17;;
80778;SDS011;70170;47.856;10.956;2024-03-25T08:00:26;1.80;;;1.20;;
80778;SDS011;70170;47.856;10.956;2024-03-25T08:02:52;3.60;;;1.35;;
80778;SDS011;70170;47.856;10.956;2024-03-25T08:05:17;2.25;;;1.23;;
80778;SDS011;70170;47.856;10.956;2024-03-25T08:07:44;2.10;;;1.30;;
80778;SDS011;70170;47.856;10.956;2024-03-25T08:10:10;1.88;;;1.17;;
80778;SDS011;70170;47.856;10.956;2024-03-25T08:12:35;3.50;;;1.00;;
80778;SDS011;70170;47.856;10.956;2024-03-25T08:15:01;1.75;;;1.20;;
80778;SDS011;70170;47.856;10.956;2024-03-25T08:17:26;1.48;;;1.10;;
80778;SDS011;70170;47.856;10.956;2024-03-25T08:19:52;3.22;;;1.48;;
80778;SDS011;70170;47.856;10.956;2024-03-25T08:22:17;1.98;;;1.30;;
80778;SDS011;70170;47.856;10.956;2024-03-25T08:24:42;1.35;;;1.23;;
80778;SDS011;70170;47.856;10.956;2024-03-25T08:27:08;5.65;;;1.30;;
80778;SDS011;70170;47.856;10.956;2024-03-25T08:29:33;3.55;;;1.23;;
80778;SDS011;70170;47.856;10.956;2024-03-25T08:31:58;2.33;;;1.30;;
80778;SDS011;70170;47.856;10.956;2024-03-25T08:34:24;3.67;;;1.30;;
80778;SDS011;70170;47.856;10.956;2024-03-25T08:36:49;1.65;;;1.05;;
80778;SDS011;70170;47.856;10.956;2024-03-25T08:39:15;2.28;;;1.20;;
80778;SDS011;70170;47.856;10.956;2024-03-25T08:41:40;3.05;;;1.38;;
80778;SDS011;70170;47.856;10.956;2024-03-25T08:44:05;3.95;;;1.10;;
80778;SDS011;70170;47.856;10.956;2024-03-25T08:46:31;2.13;;;1.00;;
80778;SDS011;70170;47.856;10.956;2024-03-25T08:48:56;1.77;;;1.00;;
80778;SDS011;70170;47.856;10.956;2024-03-25T08:51:22;1.98;;;0.95;;
80778;SDS011;70170;47.856;10.956;2024-03-25T08:53:47;1.25;;;1.15;;
80778;SDS011;70170;47.856;10.956;2024-03-25T08:56:12;1.67;;;0.95;;
80778;SDS011;70170;47.856;10.956;2024-03-25T08:58:38;1.85;;;1.00;;
80778;SDS011;70170;47.856;10.956;2024-03-25T09:01:03;1.42;;;1.00;;
80778;SDS011;70170;47.856;10.956;2024-03-25T09:03:28;3.13;;;0.80;;
80778;SDS011;70170;47.856;10.956;2024-03-25T09:05:55;3.08;;;1.20;;
80778;SDS011;70170;47.856;10.956;2024-03-25T09:08:21;1.55;;;0.90;;
80778;SDS011;70170;47.856;10.956;2024-03-25T09:10:47;1.45;;;1.17;;
80778;SDS011;70170;47.856;10.956;2024-03-25T09:13:28;1.45;;;1.08;;
80778;SDS011;70170;47.856;10.956;2024-03-25T09:15:54;3.22;;;1.23;;
80778;SDS011;70170;47.856;10.956;2024-03-25T09:18:19;2.20;;;1.25;;
80778;SDS011;70170;47.856;10.956;2024-03-25T09:20:45;5.22;;;1.30;;
80778;SDS011;70170;47.856;10.956;2024-03-25T09:23:10;0.70;;;0.70;;
80778;SDS011;70170;47.856;10.956;2024-03-25T09:25:36;2.20;;;1.00;;
80778;SDS011;70170;47.856;10.956;2024-03-25T09:28:01;2.28;;;1.02;;
80778;SDS011;70170;47.856;10.956;2024-03-25T09:30:27;1.33;;;1.20;;
80778;SDS011;70170;47.856;10.956;2024-03-25T09:32:53;1.58;;;1.00;;
80778;SDS011;70170;47.856;10.956;2024-03-25T09:35:19;3.65;;;1.10;;
80778;SDS011;70170;47.856;10.956;2024-03-25T09:37:45;1.85;;;1.35;;
80778;SDS011;70170;47.856;10.956;2024-03-25T09:40:10;1.48;;;0.93;;
80778;SDS011;70170;47.856;10.956;2024-03-25T09:42:47;1.38;;;1.00;;
80778;SDS011;70170;47.856;10.956;2024-03-25T09:45:15;2.28;;;1.05;;
80778;SDS011;70170;47.856;10.956;2024-03-25T09:47:43;1.75;;;1.00;;
80778;SDS011;70170;47.856;10.956;2024-03-25T09:50:11;1.00;;;0.82;;
80778;SDS011;70170;47.856;10.956;2024-03-25T09:52:38;1.52;;;0.90;;
80778;SDS011;70170;47.856;10.956;2024-03-25T09:55:03;3.17;;;1.27;;
80778;SDS011;70170;47.856;10.956;2024-03-25T09:57:29;1.10;;;1.00;;
80778;SDS011;70170;47.856;10.956;2024-03-25T09:59:55;2.33;;;1.10;;
80778;SDS011;70170;47.856;10.956;2024-03-25T10:02:20;2.53;;;1.08;;
80778;SDS011;70170;47.856;10.956;2024-03-25T10:04:51;1.02;;;0.90;;
80778;SDS011;70170;47.856;10.956;2024-03-25T10:07:23;1.25;;;0.93;;
80778;SDS011;70170;47.856;10.956;2024-03-25T10:09:52;2.40;;;1.05;;
80778;SDS011;70170;47.856;10.956;2024-03-25T10:12:17;3.50;;;1.23;;
80778;SDS011;70170;47.856;10.956;2024-03-25T10:14:42;2.42;;;0.85;;
80778;SDS011;70170;47.856;10.956;2024-03-25T10:17:08;1.63;;;1.00;;
80778;SDS011;70170;47.856;10.956;2024-03-25T10:19:34;0.98;;;0.80;;
80778;SDS011;70170;47.856;10.956;2024-03-25T10:22:03;1.45;;;0.90;;
80778;SDS011;70170;47.856;10.956;2024-03-25T10:24:45;0.82;;;0.77;;
80778;SDS011;70170;47.856;10.956;2024-03-25T10:27:16;1.25;;;1.02;;
80778;SDS011;70170;47.856;10.956;2024-03-25T10:29:42;1.10;;;1.08;;
80778;SDS011;70170;47.856;10.956;2024-03-25T10:32:07;0.90;;;0.90;;
80778;SDS011;70170;47.856;10.956;2024-03-25T10:34:33;2.22;;;1.08;;
80778;SDS011;70170;47.856;10.956;2024-03-25T10:36:58;1.30;;;1.00;;
80778;SDS011;70170;47.856;10.956;2024-03-25T10:39:26;2.22;;;1.02;;
80778;SDS011;70170;47.856;10.956;2024-03-25T10:41:58;1.73;;;0.95;;
80778;SDS011;70170;47.856;10.956;2024-03-25T10:44:28;1.48;;;1.00;;
80778;SDS011;70170;47.856;10.956;2024-03-25T10:47:01;1.77;;;1.00;;
80778;SDS011;70170;47.856;10.956;2024-03-25T10:49:45;1.73;;;1.10;;
80778;SDS011;70170;47.856;10.956;2024-03-25T10:52:14;1.70;;;1.00;;
80778;SDS011;70170;47.856;10.956;2024-03-25T10:54:40;0.80;;;0.80;;
80778;SDS011;70170;47.856;10.956;2024-03-25T10:57:07;0.90;;;0.80;;
80778;SDS011;70170;47.856;10.956;2024-03-25T10:59:35;2.33;;;1.00;;
80778;SDS011;70170;47.856;10.956;2024-03-25T11:02:06;2.30;;;1.17;;
80778;SDS011;70170;47.856;10.956;2024-03-25T11:04:31;1.52;;;0.90;;
80778;SDS011;70170;47.856;10.956;2024-03-25T11:07:07;1.25;;;0.90;;
80778;SDS011;70170;47.856;10.956;2024-03-25T11:09:39;2.03;;;1.02;;
80778;SDS011;70170;47.856;10.956;2024-03-25T11:12:05;1.33;;;0.75;;
80778;SDS011;70170;47.856;10.956;2024-03-25T11:14:34;2.08;;;1.10;;
80778;SDS011;70170;47.856;10.956;2024-03-25T11:17:00;0.80;;;0.80;;
80778;SDS011;70170;47.856;10.956;2024-03-25T11:19:26;2.30;;;0.90;;
80778;SDS011;70170;47.856;10.956;2024-03-25T11:21:52;1.13;;;1.02;;
80778;SDS011;70170;47.856;10.956;2024-03-25T11:24:28;0.80;;;0.80;;
80778;SDS011;70170;47.856;10.956;2024-03-25T11:26:53;0.98;;;0.90;;
80778;SDS011;70170;47.856;10.956;2024-03-25T11:29:20;0.65;;;0.65;;
80778;SDS011;70170;47.856;10.956;2024-03-25T11:31:45;1.35;;;0.82;;
80778;SDS011;70170;47.856;10.956;2024-03-25T11:34:14;0.93;;;0.93;;
80778;SDS011;70170;47.856;10.956;2024-03-25T11:36:40;0.95;;;0.90;;
80778;SDS011;70170;47.856;10.956;2024-03-25T11:39:05;2.78;;;1.00;;
80778;SDS011;70170;47.856;10.956;2024-03-25T11:41:34;1.67;;;0.93;;
80778;SDS011;70170;47.856;10.956;2024-03-25T11:44:10;2.55;;;1.10;;
80778;SDS011;70170;47.856;10.956;2024-03-25T11:46:37;2.13;;;1.00;;
80778;SDS011;70170;47.856;10.956;2024-03-25T11:49:05;1.02;;;0.90;;
80778;SDS011;70170;47.856;10.956;2024-03-25T11:51:31;0.63;;;0.63;;
80778;SDS011;70170;47.856;10.956;2024-03-25T11:53:58;0.70;;;0.70;;
80778;SDS011;70170;47.856;10.956;2024-03-25T11:56:24;1.60;;;0.93;;
80778;SDS011;70170;47.856;10.956;2024-03-25T11:58:50;0.63;;;0.63;;
80778;SDS011;70170;47.856;10.956;2024-03-25T12:01:15;0.77;;;0.73;;
80778;SDS011;70170;47.856;10.956;2024-03-25T12:03:41;0.70;;;0.70;;
80778;SDS011;70170;47.856;10.956;2024-03-25T12:06:06;2.20;;;0.77;;
80778;SDS011;70170;47.856;10.956;2024-03-25T12:08:32;1.08;;;0.82;;
80778;SDS011;70170;47.856;10.956;2024-03-25T12:11:01;2.47;;;0.70;;
80778;SDS011;70170;47.856;10.956;2024-03-25T12:13:45;0.80;;;0.80;;
80778;SDS011;70170;47.856;10.956;2024-03-25T12:16:10;0.95;;;0.93;;
80778;SDS011;70170;47.856;10.956;2024-03-25T12:18:36;0.70;;;0.70;;
80778;SDS011;70170;47.856;10.956;2024-03-25T12:21:04;3.15;;;0.85;;
80778;SDS011;70170;47.856;10.956;2024-03-25T12:23:33;0.90;;;0.68;;
80778;SDS011;70170;47.856;10.956;2024-03-25T12:25:59;0.70;;;0.70;;
80778;SDS011;70170;47.856;10.956;2024-03-25T12:28:26;0.77;;;0.77;;
80778;SDS011;70170;47.856;10.956;2024-03-25T12:30:52;0.70;;;0.70;;
80778;SDS011;70170;47.856;10.956;2024-03-25T12:33:18;1.23;;;0.80;;
80778;SDS011;70170;47.856;10.956;2024-03-25T12:35:47;2.22;;;0.98;;
80778;SDS011;70170;47.856;10.956;2024-03-25T12:38:23;3.08;;;0.90;;
80778;SDS011;70170;47.856;10.956;2024-03-25T12:40:53;1.33;;;0.95;;
80778;SDS011;70170;47.856;10.956;2024-03-25T12:43:19;1.08;;;1.08;;
80778;SDS011;70170;47.856;10.956;2024-03-25T12:45:44;1.20;;;1.02;;
80778;SDS011;70170;47.856;10.956;2024-03-25T12:48:10;0.90;;;0.90;;
80778;SDS011;70170;47.856;10.956;2024-03-25T12:50:36;1.52;;;1.05;;
80778;SDS011;70170;47.856;10.956;2024-03-25T12:53:02;2.47;;;0.90;;
80778;SDS011;70170;47.856;10.956;2024-03-25T12:55:30;3.13;;;1.02;;
80778;SDS011;70170;47.856;10.956;2024-03-25T12:57:56;1.85;;;1.10;;
80778;SDS011;70170;47.856;10.956;2024-03-25T13:00:21;2.85;;;1.10;;
80778;SDS011;70170;47.856;10.956;2024-03-25T13:02:46;1.95;;;1.02;;
80778;SDS011;70170;47.856;10.956;2024-03-25T13:05:12;0.82;;;0.80;;
80778;SDS011;70170;47.856;10.956;2024-03-25T13:07:38;2.42;;;0.80;;
80778;SDS011;70170;47.856;10.956;2024-03-25T13:10:03;2.75;;;0.85;;
80778;SDS011;70170;47.856;10.956;2024-03-25T13:12:30;1.52;;;0.90;;
80778;SDS011;70170;47.856;10.956;2024-03-25T13:14:55;0.75;;;0.75;;
80778;SDS011;70170;47.856;10.956;2024-03-25T13:17:21;0.93;;;0.90;;
80778;SDS011;70170;47.856;10.956;2024-03-25T13:19:46;1.42;;;0.95;;
80778;SDS011;70170;47.856;10.956;2024-03-25T13:22:12;0.80;;;0.80;;
80778;SDS011;70170;47.856;10.956;2024-03-25T13:24:37;1.95;;;0.80;;
80778;SDS011;70170;47.856;10.956;2024-03-25T13:27:02;0.95;;;0.80;;
80778;SDS011;70170;47.856;10.956;2024-03-25T13:29:28;1.55;;;0.80;;
80778;SDS011;70170;47.856;10.956;2024-03-25T13:31:53;0.70;;;0.70;;
80778;SDS011;70170;47.856;10.956;2024-03-25T13:34:18;1.45;;;1.00;;
80778;SDS011;70170;47.856;10.956;2024-03-25T13:36:44;0.73;;;0.60;;
80778;SDS011;70170;47.856;10.956;2024-03-25T13:39:09;2.67;;;0.88;;
80778;SDS011;70170;47.856;10.956;2024-03-25T13:41:35;0.80;;;0.80;;
80778;SDS011;70170;47.856;10.956;2024-03-25T13:44:00;0.75;;;0.70;;
80778;SDS011;70170;47.856;10.956;2024-03-25T13:46:25;0.77;;;0.77;;
80778;SDS011;70170;47.856;10.956;2024-03-25T13:48:51;0.70;;;0.70;;
80778;SDS011;70170;47.856;10.956;2024-03-25T13:51:17;0.80;;;0.80;;
80778;SDS011;70170;47.856;10.956;2024-03-25T13:53:42;1.45;;;0.80;;
80778;SDS011;70170;47.856;10.956;2024-03-25T13:56:07;1.40;;;1.00;;
80778;SDS011;70170;47.856;10.956;2024-03-25T13:58:33;1.17;;;0.85;;
80778;SDS011;70170;47.856;10.956;2024-03-25T14:00:58;0.98;;;0.90;;
80778;SDS011;70170;47.856;10.956;2024-03-25T14:03:24;0.63;;;0.63;;
80778;SDS011;70170;47.856;10.956;2024-03-25T14:05:49;0.80;;;0.80;;
80778;SDS011;70170;47.856;10.956;2024-03-25T14:08:14;1.02;;;1.02;;
80778;SDS011;70170;47.856;10.956;2024-03-25T14:10:39;0.93;;;0.80;;
80778;SDS011;70170;47.856;10.956;2024-03-25T14:13:05;0.98;;;0.70;;
80778;SDS011;70170;47.856;10.956;2024-03-25T14:15:30;1.65;;;0.90;;
80778;SDS011;70170;47.856;10.956;2024-03-25T14:17:56;1.40;;;0.85;;
80778;SDS011;70170;47.856;10.956;2024-03-25T14:20:22;0.85;;;0.85;;
80778;SDS011;70170;47.856;10.956;2024-03-25T14:22:47;0.70;;;0.70;;
80778;SDS011;70170;47.856;10.956;2024-03-25T14:25:12;0.65;;;0.60;;
80778;SDS011;70170;47.856;10.956;2024-03-25T14:27:40;5.55;;;1.20;;